Aeroporto :
LOGIN :

Iscrizione | Disclaimer

   EN    FR    IT 

 










Sommario :    VFR   VFR Marginale   IFR   IFR Intensivo   IFR Molto Intensivo
Visibilità : 
Base nubi : 
>= 8 km
>= 3000ft
5 / 8 km
1000 / 3000 ft
1500m / 5 km
500 / 1000 ft
800 / 1500m
200 / 500 ft
< 800m
< 200 ft
Simboli :   Temporali  Nebbia  Neve Forte  Precipitazioni Forti  Vento > 20 kt
SIGMETs :   Varie  Temporali  Ghiacco  Turbolenza  Onda orograficha  Ceneri Vulcaniche






- Altitudine del aeroporto : 463 ft
- Codice IATA : HME


DAUH - Oued Irara-Krim Belkacem

ULTIMO METAR :
  • 272330Z 33003KT CAVOK 14/04 Q1022

METARs OBSOLETI :
  • 272300Z 33004KT CAVOK 14/04 Q1022
  • 272230Z 34004KT CAVOK 15/05 Q1022
  • 272200Z 33004KT CAVOK 15/05 Q1022
  • 272130Z 33006KT CAVOK 16/07 Q1022

TAF TAF DAUH
Valido dal 27 a 18 ore il 28 a 18 ore UTC


271700Z 2718/2818 34010KT CAVOK
BECMG 2800/2803 VRB02KT



MetMap, La meteo Aeronautica in un colpo d'occhio ! - Copyright ORBIFLY Dicembre 2007 - Disclaimer

ORBIFLY MET'MAP TEAM :

Programmazione e sviluppo : Alexandra Zaïnal
Concezione : Baudouin d'Aumeries
Aiuto per la programmazione : Marc-Olivier Méhu
Supporto tecnico e logistico : Manuel Goepfert
Aiuto per la traduzione : Arnaldo La Scala

Contatto : metmap@orbifly.com




FONTI E CREDITI :

   NOAA